sensor_id;sensor_type;location;lat;lon;timestamp;P1;durP1;ratioP1;P2;durP2;ratioP2
57249;SDS011;43102;52.014;-0.680;2023-02-23T00:00:08;12.00;;;9.40;;
57249;SDS011;43102;52.014;-0.680;2023-02-23T00:01:00;12.00;;;9.40;;
57249;SDS011;43102;52.014;-0.680;2023-02-23T00:02:06;12.00;;;9.40;;
57249;SDS011;43102;52.014;-0.680;2023-02-23T00:03:01;12.00;;;9.40;;
57249;SDS011;43102;52.014;-0.680;2023-02-23T00:04:00;12.00;;;9.40;;
57249;SDS011;43102;52.014;-0.680;2023-02-23T00:05:01;12.00;;;9.40;;
57249;SDS011;43102;52.014;-0.680;2023-02-23T00:06:02;10.10;;;8.20;;
57249;SDS011;43102;52.014;-0.680;2023-02-23T00:07:01;10.10;;;8.20;;
57249;SDS011;43102;52.014;-0.680;2023-02-23T00:08:00;10.10;;;8.20;;
57249;SDS011;43102;52.014;-0.680;2023-02-23T00:09:01;10.10;;;8.20;;
57249;SDS011;43102;52.014;-0.680;2023-02-23T00:10:00;10.10;;;8.20;;
57249;SDS011;43102;52.014;-0.680;2023-02-23T00:11:02;10.10;;;8.20;;
57249;SDS011;43102;52.014;-0.680;2023-02-23T00:12:06;10.10;;;8.20;;
57249;SDS011;43102;52.014;-0.680;2023-02-23T00:13:00;10.10;;;8.20;;
57249;SDS011;43102;52.014;-0.680;2023-02-23T00:14:02;10.10;;;8.20;;
57249;SDS011;43102;52.014;-0.680;2023-02-23T00:15:00;10.10;;;8.20;;
57249;SDS011;43102;52.014;-0.680;2023-02-23T00:16:03;10.10;;;8.20;;
57249;SDS011;43102;52.014;-0.680;2023-02-23T00:17:00;10.10;;;8.20;;
57249;SDS011;43102;52.014;-0.680;2023-02-23T00:18:03;10.10;;;8.20;;
57249;SDS011;43102;52.014;-0.680;2023-02-23T00:19:06;10.10;;;8.20;;
57249;SDS011;43102;52.014;-0.680;2023-02-23T00:20:07;10.10;;;8.20;;
57249;SDS011;43102;52.014;-0.680;2023-02-23T00:21:00;10.10;;;8.20;;
57249;SDS011;43102;52.014;-0.680;2023-02-23T00:22:00;10.10;;;8.20;;
57249;SDS011;43102;52.014;-0.680;2023-02-23T00:23:00;10.10;;;8.20;;
57249;SDS011;43102;52.014;-0.680;2023-02-23T00:24:03;10.10;;;8.20;;
57249;SDS011;43102;52.014;-0.680;2023-02-23T00:25:06;10.10;;;8.20;;
57249;SDS011;43102;52.014;-0.680;2023-02-23T00:26:04;10.10;;;8.20;;
57249;SDS011;43102;52.014;-0.680;2023-02-23T00:27:05;10.10;;;8.20;;
57249;SDS011;43102;52.014;-0.680;2023-02-23T00:28:00;10.10;;;8.20;;
57249;SDS011;43102;52.014;-0.680;2023-02-23T00:29:05;10.10;;;8.20;;
57249;SDS011;43102;52.014;-0.680;2023-02-23T00:30:01;10.10;;;8.20;;
57249;SDS011;43102;52.014;-0.680;2023-02-23T00:31:01;10.10;;;8.20;;
57249;SDS011;43102;52.014;-0.680;2023-02-23T00:32:00;10.10;;;8.20;;
57249;SDS011;43102;52.014;-0.680;2023-02-23T00:33:00;10.10;;;8.20;;
57249;SDS011;43102;52.014;-0.680;2023-02-23T00:34:02;10.10;;;8.20;;
57249;SDS011;43102;52.014;-0.680;2023-02-23T00:35:01;10.10;;;8.20;;
57249;SDS011;43102;52.014;-0.680;2023-02-23T00:36:03;8.60;;;5.90;;
57249;SDS011;43102;52.014;-0.680;2023-02-23T00:37:00;8.60;;;5.90;;
57249;SDS011;43102;52.014;-0.680;2023-02-23T00:38:00;8.60;;;5.90;;
57249;SDS011;43102;52.014;-0.680;2023-02-23T00:39:06;8.60;;;5.90;;
57249;SDS011;43102;52.014;-0.680;2023-02-23T00:40:00;8.60;;;5.90;;
57249;SDS011;43102;52.014;-0.680;2023-02-23T00:41:07;8.60;;;5.90;;
57249;SDS011;43102;52.014;-0.680;2023-02-23T00:42:02;8.60;;;5.90;;
57249;SDS011;43102;52.014;-0.680;2023-02-23T00:43:00;8.60;;;5.90;;
57249;SDS011;43102;52.014;-0.680;2023-02-23T00:44:00;8.60;;;5.90;;
57249;SDS011;43102;52.014;-0.680;2023-02-23T00:45:07;8.60;;;5.90;;
57249;SDS011;43102;52.014;-0.680;2023-02-23T00:46:04;8.60;;;5.90;;
57249;SDS011;43102;52.014;-0.680;2023-02-23T00:47:01;8.60;;;5.90;;
57249;SDS011;43102;52.014;-0.680;2023-02-23T00:48:02;8.60;;;5.90;;
57249;SDS011;43102;52.014;-0.680;2023-02-23T00:49:00;8.60;;;5.90;;
57249;SDS011;43102;52.014;-0.680;2023-02-23T00:50:01;8.60;;;5.90;;
57249;SDS011;43102;52.014;-0.680;2023-02-23T00:51:02;8.60;;;5.90;;
57249;SDS011;43102;52.014;-0.680;2023-02-23T00:52:00;8.60;;;5.90;;
57249;SDS011;43102;52.014;-0.680;2023-02-23T00:53:00;8.60;;;5.90;;
57249;SDS011;43102;52.014;-0.680;2023-02-23T00:54:00;8.60;;;5.90;;
57249;SDS011;43102;52.014;-0.680;2023-02-23T00:55:00;8.60;;;5.90;;
57249;SDS011;43102;52.014;-0.680;2023-02-23T00:56:03;8.60;;;5.90;;
57249;SDS011;43102;52.014;-0.680;2023-02-23T00:57:00;8.60;;;5.90;;
57249;SDS011;43102;52.014;-0.680;2023-02-23T00:58:02;8.60;;;5.90;;
57249;SDS011;43102;52.014;-0.680;2023-02-23T00:59:00;8.60;;;5.90;;
57249;SDS011;43102;52.014;-0.680;2023-02-23T01:00:02;8.60;;;5.90;;
57249;SDS011;43102;52.014;-0.680;2023-02-23T01:01:00;8.60;;;5.90;;
57249;SDS011;43102;52.014;-0.680;2023-02-23T01:02:01;8.60;;;5.90;;
57249;SDS011;43102;52.014;-0.680;2023-02-23T01:03:00;8.60;;;5.90;;
57249;SDS011;43102;52.014;-0.680;2023-02-23T01:04:01;8.60;;;5.90;;
57249;SDS011;43102;52.014;-0.680;2023-02-23T01:05:00;8.60;;;5.90;;
57249;SDS011;43102;52.014;-0.680;2023-02-23T01:06:05;8.60;;;6.60;;
57249;SDS011;43102;52.014;-0.680;2023-02-23T01:07:05;8.60;;;6.60;;
57249;SDS011;43102;52.014;-0.680;2023-02-23T01:08:00;8.60;;;6.60;;
57249;SDS011;43102;52.014;-0.680;2023-02-23T01:09:05;8.60;;;6.60;;
57249;SDS011;43102;52.014;-0.680;2023-02-23T01:10:00;8.60;;;6.60;;
57249;SDS011;43102;52.014;-0.680;2023-02-23T01:11:10;8.60;;;6.60;;
57249;SDS011;43102;52.014;-0.680;2023-02-23T01:12:00;8.60;;;6.60;;
57249;SDS011;43102;52.014;-0.680;2023-02-23T01:13:01;8.60;;;6.60;;
57249;SDS011;43102;52.014;-0.680;2023-02-23T01:14:01;8.60;;;6.60;;
57249;SDS011;43102;52.014;-0.680;2023-02-23T01:15:02;8.60;;;6.60;;
57249;SDS011;43102;52.014;-0.680;2023-02-23T01:16:03;8.60;;;6.60;;
57249;SDS011;43102;52.014;-0.680;2023-02-23T01:17:00;8.60;;;6.60;;
57249;SDS011;43102;52.014;-0.680;2023-02-23T01:18:00;8.60;;;6.60;;
57249;SDS011;43102;52.014;-0.680;2023-02-23T01:19:02;8.60;;;6.60;;
57249;SDS011;43102;52.014;-0.680;2023-02-23T01:20:00;8.60;;;6.60;;
57249;SDS011;43102;52.014;-0.680;2023-02-23T01:21:01;8.60;;;6.60;;
57249;SDS011;43102;52.014;-0.680;2023-02-23T01:22:01;8.60;;;6.60;;
57249;SDS011;43102;52.014;-0.680;2023-02-23T01:23:02;8.60;;;6.60;;
57249;SDS011;43102;52.014;-0.680;2023-02-23T01:24:01;8.60;;;6.60;;
57249;SDS011;43102;52.014;-0.680;2023-02-23T01:25:00;8.60;;;6.60;;
57249;SDS011;43102;52.014;-0.680;2023-02-23T01:26:00;8.60;;;6.60;;
57249;SDS011;43102;52.014;-0.680;2023-02-23T01:27:00;8.60;;;6.60;;
57249;SDS011;43102;52.014;-0.680;2023-02-23T01:28:00;8.60;;;6.60;;
57249;SDS011;43102;52.014;-0.680;2023-02-23T01:29:05;8.60;;;6.60;;
57249;SDS011;43102;52.014;-0.680;2023-02-23T01:30:00;8.60;;;6.60;;
57249;SDS011;43102;52.014;-0.680;2023-02-23T01:31:01;8.60;;;6.60;;
57249;SDS011;43102;52.014;-0.680;2023-02-23T01:32:04;8.60;;;6.60;;
57249;SDS011;43102;52.014;-0.680;2023-02-23T01:33:01;8.60;;;6.60;;
57249;SDS011;43102;52.014;-0.680;2023-02-23T01:34:02;8.60;;;6.60;;
57249;SDS011;43102;52.014;-0.680;2023-02-23T01:35:03;8.60;;;6.60;;
57249;SDS011;43102;52.014;-0.680;2023-02-23T01:36:00;8.60;;;6.60;;
57249;SDS011;43102;52.014;-0.680;2023-02-23T01:37:02;11.30;;;6.90;;
57249;SDS011;43102;52.014;-0.680;2023-02-23T01:38:00;11.30;;;6.90;;
57249;SDS011;43102;52.014;-0.680;2023-02-23T01:39:01;11.30;;;6.90;;
57249;SDS011;43102;52.014;-0.680;2023-02-23T01:41:00;11.30;;;6.90;;
57249;SDS011;43102;52.014;-0.680;2023-02-23T01:42:00;11.30;;;6.90;;
57249;SDS011;43102;52.014;-0.680;2023-02-23T01:43:12;11.30;;;6.90;;
57249;SDS011;43102;52.014;-0.680;2023-02-23T01:44:57;11.30;;;6.90;;
57249;SDS011;43102;52.014;-0.680;2023-02-23T01:45:21;11.30;;;6.90;;
57249;SDS011;43102;52.014;-0.680;2023-02-23T01:46:01;11.30;;;6.90;;
57249;SDS011;43102;52.014;-0.680;2023-02-23T01:47:00;11.30;;;6.90;;
57249;SDS011;43102;52.014;-0.680;2023-02-23T01:48:05;11.30;;;6.90;;
57249;SDS011;43102;52.014;-0.680;2023-02-23T01:49:02;11.30;;;6.90;;
57249;SDS011;43102;52.014;-0.680;2023-02-23T01:50:01;11.30;;;6.90;;
57249;SDS011;43102;52.014;-0.680;2023-02-23T01:51:06;11.30;;;6.90;;
57249;SDS011;43102;52.014;-0.680;2023-02-23T01:52:02;11.30;;;6.90;;
57249;SDS011;43102;52.014;-0.680;2023-02-23T01:53:01;11.30;;;6.90;;
57249;SDS011;43102;52.014;-0.680;2023-02-23T01:54:14;11.30;;;6.90;;
57249;SDS011;43102;52.014;-0.680;2023-02-23T01:55:01;11.30;;;6.90;;
57249;SDS011;43102;52.014;-0.680;2023-02-23T01:56:06;11.30;;;6.90;;
57249;SDS011;43102;52.014;-0.680;2023-02-23T01:57:02;11.30;;;6.90;;
57249;SDS011;43102;52.014;-0.680;2023-02-23T01:58:14;11.30;;;6.90;;
57249;SDS011;43102;52.014;-0.680;2023-02-23T01:59:04;11.30;;;6.90;;
57249;SDS011;43102;52.014;-0.680;2023-02-23T02:00:01;11.30;;;6.90;;
57249;SDS011;43102;52.014;-0.680;2023-02-23T02:01:01;11.30;;;6.90;;
57249;SDS011;43102;52.014;-0.680;2023-02-23T02:02:04;11.30;;;6.90;;
57249;SDS011;43102;52.014;-0.680;2023-02-23T02:03:07;11.30;;;6.90;;
57249;SDS011;43102;52.014;-0.680;2023-02-23T02:04:04;11.30;;;6.90;;
57249;SDS011;43102;52.014;-0.680;2023-02-23T02:05:03;11.30;;;6.90;;
57249;SDS011;43102;52.014;-0.680;2023-02-23T02:06:03;11.30;;;6.90;;
57249;SDS011;43102;52.014;-0.680;2023-02-23T02:07:02;12.10;;;7.10;;
57249;SDS011;43102;52.014;-0.680;2023-02-23T02:08:00;12.10;;;7.10;;
57249;SDS011;43102;52.014;-0.680;2023-02-23T02:09:06;12.10;;;7.10;;
57249;SDS011;43102;52.014;-0.680;2023-02-23T02:10:11;12.10;;;7.10;;
57249;SDS011;43102;52.014;-0.680;2023-02-23T02:11:09;12.10;;;7.10;;
57249;SDS011;43102;52.014;-0.680;2023-02-23T02:12:01;12.10;;;7.10;;
57249;SDS011;43102;52.014;-0.680;2023-02-23T02:13:04;12.10;;;7.10;;
57249;SDS011;43102;52.014;-0.680;2023-02-23T02:14:03;12.10;;;7.10;;
57249;SDS011;43102;52.014;-0.680;2023-02-23T02:15:05;12.10;;;7.10;;
57249;SDS011;43102;52.014;-0.680;2023-02-23T02:16:16;12.10;;;7.10;;
57249;SDS011;43102;52.014;-0.680;2023-02-23T02:17:15;12.10;;;7.10;;
57249;SDS011;43102;52.014;-0.680;2023-02-23T02:24:16;12.10;;;7.10;;
57249;SDS011;43102;52.014;-0.680;2023-02-23T02:27:12;12.10;;;7.10;;
57249;SDS011;43102;52.014;-0.680;2023-02-23T02:28:21;12.10;;;7.10;;
57249;SDS011;43102;52.014;-0.680;2023-02-23T02:35:16;12.10;;;7.10;;
57249;SDS011;43102;52.014;-0.680;2023-02-23T02:37:16;10.60;;;5.80;;
57249;SDS011;43102;52.014;-0.680;2023-02-23T02:38:03;10.60;;;5.80;;
57249;SDS011;43102;52.014;-0.680;2023-02-23T02:41:07;10.60;;;5.80;;
57249;SDS011;43102;52.014;-0.680;2023-02-23T02:42:11;10.60;;;5.80;;
57249;SDS011;43102;52.014;-0.680;2023-02-23T02:44:10;10.60;;;5.80;;
57249;SDS011;43102;52.014;-0.680;2023-02-23T02:46:06;10.60;;;5.80;;
57249;SDS011;43102;52.014;-0.680;2023-02-23T02:47:07;10.60;;;5.80;;
57249;SDS011;43102;52.014;-0.680;2023-02-23T02:48:11;10.60;;;5.80;;
57249;SDS011;43102;52.014;-0.680;2023-02-23T02:49:08;10.60;;;5.80;;
57249;SDS011;43102;52.014;-0.680;2023-02-23T02:50:03;10.60;;;5.80;;
57249;SDS011;43102;52.014;-0.680;2023-02-23T02:51:12;10.60;;;5.80;;
57249;SDS011;43102;52.014;-0.680;2023-02-23T02:52:14;10.60;;;5.80;;
57249;SDS011;43102;52.014;-0.680;2023-02-23T02:53:06;10.60;;;5.80;;
57249;SDS011;43102;52.014;-0.680;2023-02-23T02:54:06;10.60;;;5.80;;
57249;SDS011;43102;52.014;-0.680;2023-02-23T02:55:12;10.60;;;5.80;;
57249;SDS011;43102;52.014;-0.680;2023-02-23T02:56:04;10.60;;;5.80;;
57249;SDS011;43102;52.014;-0.680;2023-02-23T02:57:03;10.60;;;5.80;;
57249;SDS011;43102;52.014;-0.680;2023-02-23T02:58:03;10.60;;;5.80;;
57249;SDS011;43102;52.014;-0.680;2023-02-23T02:59:02;10.60;;;5.80;;
57249;SDS011;43102;52.014;-0.680;2023-02-23T03:00:13;10.60;;;5.80;;
57249;SDS011;43102;52.014;-0.680;2023-02-23T03:01:16;10.60;;;5.80;;
57249;SDS011;43102;52.014;-0.680;2023-02-23T03:02:15;10.60;;;5.80;;
57249;SDS011;43102;52.014;-0.680;2023-02-23T03:03:26;10.60;;;5.80;;
57249;SDS011;43102;52.014;-0.680;2023-02-23T03:04:22;10.60;;;5.80;;
57249;SDS011;43102;52.014;-0.680;2023-02-23T03:05:12;10.60;;;5.80;;
57249;SDS011;43102;52.014;-0.680;2023-02-23T03:06:10;7.90;;;4.60;;
57249;SDS011;43102;52.014;-0.680;2023-02-23T03:07:19;7.90;;;4.60;;
57249;SDS011;43102;52.014;-0.680;2023-02-23T03:08:25;7.90;;;4.60;;
57249;SDS011;43102;52.014;-0.680;2023-02-23T03:10:23;7.90;;;4.60;;
57249;SDS011;43102;52.014;-0.680;2023-02-23T03:11:11;7.90;;;4.60;;
57249;SDS011;43102;52.014;-0.680;2023-02-23T03:12:34;7.90;;;4.60;;
57249;SDS011;43102;52.014;-0.680;2023-02-23T03:14:24;7.90;;;4.60;;
57249;SDS011;43102;52.014;-0.680;2023-02-23T03:15:31;7.90;;;4.60;;
57249;SDS011;43102;52.014;-0.680;2023-02-23T03:18:24;7.90;;;4.60;;
57249;SDS011;43102;52.014;-0.680;2023-02-23T03:19:24;7.90;;;4.60;;
57249;SDS011;43102;52.014;-0.680;2023-02-23T03:20:24;7.90;;;4.60;;
57249;SDS011;43102;52.014;-0.680;2023-02-23T03:21:18;7.90;;;4.60;;
57249;SDS011;43102;52.014;-0.680;2023-02-23T03:22:21;7.90;;;4.60;;
57249;SDS011;43102;52.014;-0.680;2023-02-23T03:24:23;7.90;;;4.60;;
57249;SDS011;43102;52.014;-0.680;2023-02-23T03:25:18;7.90;;;4.60;;
57249;SDS011;43102;52.014;-0.680;2023-02-23T03:27:18;7.90;;;4.60;;
57249;SDS011;43102;52.014;-0.680;2023-02-23T03:28:18;7.90;;;4.60;;
57249;SDS011;43102;52.014;-0.680;2023-02-23T03:30:21;7.90;;;4.60;;
57249;SDS011;43102;52.014;-0.680;2023-02-23T03:32:25;7.90;;;4.60;;
57249;SDS011;43102;52.014;-0.680;2023-02-23T03:33:15;7.90;;;4.60;;
57249;SDS011;43102;52.014;-0.680;2023-02-23T03:34:22;7.90;;;4.60;;
57249;SDS011;43102;52.014;-0.680;2023-02-23T03:35:17;7.90;;;4.60;;
57249;SDS011;43102;52.014;-0.680;2023-02-23T03:36:16;7.70;;;4.80;;
57249;SDS011;43102;52.014;-0.680;2023-02-23T03:37:17;7.70;;;4.80;;
57249;SDS011;43102;52.014;-0.680;2023-02-23T03:38:16;7.70;;;4.80;;
57249;SDS011;43102;52.014;-0.680;2023-02-23T03:39:23;7.70;;;4.80;;
57249;SDS011;43102;52.014;-0.680;2023-02-23T03:41:12;7.70;;;4.80;;
57249;SDS011;43102;52.014;-0.680;2023-02-23T03:42:15;7.70;;;4.80;;
57249;SDS011;43102;52.014;-0.680;2023-02-23T03:43:15;7.70;;;4.80;;
57249;SDS011;43102;52.014;-0.680;2023-02-23T03:44:17;7.70;;;4.80;;
57249;SDS011;43102;52.014;-0.680;2023-02-23T03:45:17;7.70;;;4.80;;
57249;SDS011;43102;52.014;-0.680;2023-02-23T03:46:12;7.70;;;4.80;;
57249;SDS011;43102;52.014;-0.680;2023-02-23T03:47:13;7.70;;;4.80;;
57249;SDS011;43102;52.014;-0.680;2023-02-23T03:48:12;7.70;;;4.80;;
57249;SDS011;43102;52.014;-0.680;2023-02-23T03:49:12;7.70;;;4.80;;
57249;SDS011;43102;52.014;-0.680;2023-02-23T03:50:18;7.70;;;4.80;;
57249;SDS011;43102;52.014;-0.680;2023-02-23T03:51:13;7.70;;;4.80;;
57249;SDS011;43102;52.014;-0.680;2023-02-23T03:52:15;7.70;;;4.80;;
57249;SDS011;43102;52.014;-0.680;2023-02-23T03:53:11;7.70;;;4.80;;
57249;SDS011;43102;52.014;-0.680;2023-02-23T03:54:20;7.70;;;4.80;;
57249;SDS011;43102;52.014;-0.680;2023-02-23T03:55:15;7.70;;;4.80;;
57249;SDS011;43102;52.014;-0.680;2023-02-23T03:56:11;7.70;;;4.80;;
57249;SDS011;43102;52.014;-0.680;2023-02-23T03:57:13;7.70;;;4.80;;
57249;SDS011;43102;52.014;-0.680;2023-02-23T03:58:12;7.70;;;4.80;;
57249;SDS011;43102;52.014;-0.680;2023-02-23T03:59:11;7.70;;;4.80;;
57249;SDS011;43102;52.014;-0.680;2023-02-23T04:00:15;7.70;;;4.80;;
57249;SDS011;43102;52.014;-0.680;2023-02-23T04:01:12;7.70;;;4.80;;
57249;SDS011;43102;52.014;-0.680;2023-02-23T04:02:13;7.70;;;4.80;;
57249;SDS011;43102;52.014;-0.680;2023-02-23T04:03:14;7.70;;;4.80;;
57249;SDS011;43102;52.014;-0.680;2023-02-23T04:04:12;7.70;;;4.80;;
57249;SDS011;43102;52.014;-0.680;2023-02-23T04:05:16;7.70;;;4.80;;
57249;SDS011;43102;52.014;-0.680;2023-02-23T04:06:12;9.40;;;5.20;;
57249;SDS011;43102;52.014;-0.680;2023-02-23T04:07:12;9.40;;;5.20;;
57249;SDS011;43102;52.014;-0.680;2023-02-23T04:08:13;9.40;;;5.20;;
57249;SDS011;43102;52.014;-0.680;2023-02-23T04:09:12;9.40;;;5.20;;
57249;SDS011;43102;52.014;-0.680;2023-02-23T04:10:11;9.40;;;5.20;;
57249;SDS011;43102;52.014;-0.680;2023-02-23T04:12:15;9.40;;;5.20;;
57249;SDS011;43102;52.014;-0.680;2023-02-23T04:13:15;9.40;;;5.20;;
57249;SDS011;43102;52.014;-0.680;2023-02-23T04:14:04;9.40;;;5.20;;
57249;SDS011;43102;52.014;-0.680;2023-02-23T04:15:10;9.40;;;5.20;;
57249;SDS011;43102;52.014;-0.680;2023-02-23T04:16:04;9.40;;;5.20;;
57249;SDS011;43102;52.014;-0.680;2023-02-23T04:17:01;9.40;;;5.20;;
57249;SDS011;43102;52.014;-0.680;2023-02-23T04:18:03;9.40;;;5.20;;
57249;SDS011;43102;52.014;-0.680;2023-02-23T04:19:00;9.40;;;5.20;;
57249;SDS011;43102;52.014;-0.680;2023-02-23T04:20:01;9.40;;;5.20;;
57249;SDS011;43102;52.014;-0.680;2023-02-23T04:21:01;9.40;;;5.20;;
57249;SDS011;43102;52.014;-0.680;2023-02-23T04:22:00;9.40;;;5.20;;
57249;SDS011;43102;52.014;-0.680;2023-02-23T04:23:01;9.40;;;5.20;;
57249;SDS011;43102;52.014;-0.680;2023-02-23T04:24:00;9.40;;;5.20;;
57249;SDS011;43102;52.014;-0.680;2023-02-23T04:25:00;9.40;;;5.20;;
57249;SDS011;43102;52.014;-0.680;2023-02-23T04:26:00;9.40;;;5.20;;
57249;SDS011;43102;52.014;-0.680;2023-02-23T04:27:01;9.40;;;5.20;;
57249;SDS011;43102;52.014;-0.680;2023-02-23T04:28:00;9.40;;;5.20;;
57249;SDS011;43102;52.014;-0.680;2023-02-23T04:29:00;9.40;;;5.20;;
57249;SDS011;43102;52.014;-0.680;2023-02-23T04:30:03;9.40;;;5.20;;
57249;SDS011;43102;52.014;-0.680;2023-02-23T04:31:01;9.40;;;5.20;;
57249;SDS011;43102;52.014;-0.680;2023-02-23T04:32:00;9.40;;;5.20;;
57249;SDS011;43102;52.014;-0.680;2023-02-23T04:33:00;9.40;;;5.20;;
57249;SDS011;43102;52.014;-0.680;2023-02-23T04:34:00;9.40;;;5.20;;
57249;SDS011;43102;52.014;-0.680;2023-02-23T04:35:00;9.40;;;5.20;;
57249;SDS011;43102;52.014;-0.680;2023-02-23T04:36:00;9.40;;;5.20;;
57249;SDS011;43102;52.014;-0.680;2023-02-23T04:37:00;7.60;;;5.10;;
57249;SDS011;43102;52.014;-0.680;2023-02-23T04:38:00;7.60;;;5.10;;
57249;SDS011;43102;52.014;-0.680;2023-02-23T04:39:01;7.60;;;5.10;;
57249;SDS011;43102;52.014;-0.680;2023-02-23T04:40:00;7.60;;;5.10;;
57249;SDS011;43102;52.014;-0.680;2023-02-23T04:41:00;7.60;;;5.10;;
57249;SDS011;43102;52.014;-0.680;2023-02-23T04:42:01;7.60;;;5.10;;
57249;SDS011;43102;52.014;-0.680;2023-02-23T04:43:01;7.60;;;5.10;;
57249;SDS011;43102;52.014;-0.680;2023-02-23T04:44:00;7.60;;;5.10;;
57249;SDS011;43102;52.014;-0.680;2023-02-23T04:45:01;7.60;;;5.10;;
57249;SDS011;43102;52.014;-0.680;2023-02-23T04:46:00;7.60;;;5.10;;
57249;SDS011;43102;52.014;-0.680;2023-02-23T04:47:00;7.60;;;5.10;;
57249;SDS011;43102;52.014;-0.680;2023-02-23T04:48:00;7.60;;;5.10;;
57249;SDS011;43102;52.014;-0.680;2023-02-23T04:49:00;7.60;;;5.10;;
57249;SDS011;43102;52.014;-0.680;2023-02-23T04:50:00;7.60;;;5.10;;
57249;SDS011;43102;52.014;-0.680;2023-02-23T04:51:00;7.60;;;5.10;;
57249;SDS011;43102;52.014;-0.680;2023-02-23T04:52:01;7.60;;;5.10;;
57249;SDS011;43102;52.014;-0.680;2023-02-23T04:53:00;7.60;;;5.10;;
57249;SDS011;43102;52.014;-0.680;2023-02-23T04:54:01;7.60;;;5.10;;
57249;SDS011;43102;52.014;-0.680;2023-02-23T04:55:00;7.60;;;5.10;;
57249;SDS011;43102;52.014;-0.680;2023-02-23T04:56:00;7.60;;;5.10;;
57249;SDS011;43102;52.014;-0.680;2023-02-23T04:57:00;7.60;;;5.10;;
57249;SDS011;43102;52.014;-0.680;2023-02-23T04:58:01;7.60;;;5.10;;
57249;SDS011;43102;52.014;-0.680;2023-02-23T04:59:01;7.60;;;5.10;;
57249;SDS011;43102;52.014;-0.680;2023-02-23T05:00:03;7.60;;;5.10;;
57249;SDS011;43102;52.014;-0.680;2023-02-23T05:01:05;7.60;;;5.10;;
57249;SDS011;43102;52.014;-0.680;2023-02-23T05:02:01;7.60;;;5.10;;
57249;SDS011;43102;52.014;-0.680;2023-02-23T05:03:01;7.60;;;5.10;;
57249;SDS011;43102;52.014;-0.680;2023-02-23T05:04:00;7.60;;;5.10;;
57249;SDS011;43102;52.014;-0.680;2023-02-23T05:05:01;7.60;;;5.10;;
57249;SDS011;43102;52.014;-0.680;2023-02-23T05:06:01;7.60;;;5.10;;
57249;SDS011;43102;52.014;-0.680;2023-02-23T05:07:03;8.20;;;4.00;;
57249;SDS011;43102;52.014;-0.680;2023-02-23T05:08:01;8.20;;;4.00;;
57249;SDS011;43102;52.014;-0.680;2023-02-23T05:09:02;8.20;;;4.00;;
57249;SDS011;43102;52.014;-0.680;2023-02-23T05:10:01;8.20;;;4.00;;
57249;SDS011;43102;52.014;-0.680;2023-02-23T05:11:00;8.20;;;4.00;;
57249;SDS011;43102;52.014;-0.680;2023-02-23T05:12:00;8.20;;;4.00;;
57249;SDS011;43102;52.014;-0.680;2023-02-23T05:13:00;8.20;;;4.00;;
57249;SDS011;43102;52.014;-0.680;2023-02-23T05:14:00;8.20;;;4.00;;
57249;SDS011;43102;52.014;-0.680;2023-02-23T05:15:01;8.20;;;4.00;;
57249;SDS011;43102;52.014;-0.680;2023-02-23T05:16:00;8.20;;;4.00;;
57249;SDS011;43102;52.014;-0.680;2023-02-23T05:17:00;8.20;;;4.00;;
57249;SDS011;43102;52.014;-0.680;2023-02-23T05:18:00;8.20;;;4.00;;
57249;SDS011;43102;52.014;-0.680;2023-02-23T05:19:01;8.20;;;4.00;;
57249;SDS011;43102;52.014;-0.680;2023-02-23T05:20:00;8.20;;;4.00;;
57249;SDS011;43102;52.014;-0.680;2023-02-23T05:21:02;8.20;;;4.00;;
57249;SDS011;43102;52.014;-0.680;2023-02-23T05:22:01;8.20;;;4.00;;
57249;SDS011;43102;52.014;-0.680;2023-02-23T05:23:00;8.20;;;4.00;;
57249;SDS011;43102;52.014;-0.680;2023-02-23T05:24:01;8.20;;;4.00;;
57249;SDS011;43102;52.014;-0.680;2023-02-23T05:25:01;8.20;;;4.00;;
57249;SDS011;43102;52.014;-0.680;2023-02-23T05:26:04;8.20;;;4.00;;
57249;SDS011;43102;52.014;-0.680;2023-02-23T05:27:00;8.20;;;4.00;;
57249;SDS011;43102;52.014;-0.680;2023-02-23T05:28:01;8.20;;;4.00;;
57249;SDS011;43102;52.014;-0.680;2023-02-23T05:29:00;8.20;;;4.00;;
57249;SDS011;43102;52.014;-0.680;2023-02-23T05:30:01;8.20;;;4.00;;
57249;SDS011;43102;52.014;-0.680;2023-02-23T05:31:02;8.20;;;4.00;;
57249;SDS011;43102;52.014;-0.680;2023-02-23T05:32:01;8.20;;;4.00;;
57249;SDS011;43102;52.014;-0.680;2023-02-23T05:33:01;8.20;;;4.00;;
57249;SDS011;43102;52.014;-0.680;2023-02-23T05:34:00;8.20;;;4.00;;
57249;SDS011;43102;52.014;-0.680;2023-02-23T05:35:01;8.20;;;4.00;;
57249;SDS011;43102;52.014;-0.680;2023-02-23T05:36:03;8.20;;;4.00;;
57249;SDS011;43102;52.014;-0.680;2023-02-23T05:37:00;8.40;;;4.80;;
57249;SDS011;43102;52.014;-0.680;2023-02-23T05:38:00;8.40;;;4.80;;
57249;SDS011;43102;52.014;-0.680;2023-02-23T05:39:00;8.40;;;4.80;;
57249;SDS011;43102;52.014;-0.680;2023-02-23T05:40:01;8.40;;;4.80;;
57249;SDS011;43102;52.014;-0.680;2023-02-23T05:41:04;8.40;;;4.80;;
57249;SDS011;43102;52.014;-0.680;2023-02-23T05:42:00;8.40;;;4.80;;
57249;SDS011;43102;52.014;-0.680;2023-02-23T05:43:00;8.40;;;4.80;;
57249;SDS011;43102;52.014;-0.680;2023-02-23T05:44:00;8.40;;;4.80;;
57249;SDS011;43102;52.014;-0.680;2023-02-23T05:45:00;8.40;;;4.80;;
57249;SDS011;43102;52.014;-0.680;2023-02-23T05:46:04;8.40;;;4.80;;
57249;SDS011;43102;52.014;-0.680;2023-02-23T05:47:00;8.40;;;4.80;;
57249;SDS011;43102;52.014;-0.680;2023-02-23T05:48:01;8.40;;;4.80;;
57249;SDS011;43102;52.014;-0.680;2023-02-23T05:49:01;8.40;;;4.80;;
57249;SDS011;43102;52.014;-0.680;2023-02-23T05:50:00;8.40;;;4.80;;
57249;SDS011;43102;52.014;-0.680;2023-02-23T05:51:04;8.40;;;4.80;;
57249;SDS011;43102;52.014;-0.680;2023-02-23T05:52:00;8.40;;;4.80;;
57249;SDS011;43102;52.014;-0.680;2023-02-23T05:53:01;8.40;;;4.80;;
57249;SDS011;43102;52.014;-0.680;2023-02-23T05:54:01;8.40;;;4.80;;
57249;SDS011;43102;52.014;-0.680;2023-02-23T05:55:00;8.40;;;4.80;;
57249;SDS011;43102;52.014;-0.680;2023-02-23T05:56:02;8.40;;;4.80;;
57249;SDS011;43102;52.014;-0.680;2023-02-23T05:57:02;8.40;;;4.80;;
57249;SDS011;43102;52.014;-0.680;2023-02-23T05:58:00;8.40;;;4.80;;
57249;SDS011;43102;52.014;-0.680;2023-02-23T05:59:03;8.40;;;4.80;;
57249;SDS011;43102;52.014;-0.680;2023-02-23T06:00:01;8.40;;;4.80;;
57249;SDS011;43102;52.014;-0.680;2023-02-23T06:01:00;8.40;;;4.80;;
57249;SDS011;43102;52.014;-0.680;2023-02-23T06:02:01;8.40;;;4.80;;
57249;SDS011;43102;52.014;-0.680;2023-02-23T06:03:00;8.40;;;4.80;;
57249;SDS011;43102;52.014;-0.680;2023-02-23T06:04:00;8.40;;;4.80;;
57249;SDS011;43102;52.014;-0.680;2023-02-23T06:05:01;8.40;;;4.80;;
57249;SDS011;43102;52.014;-0.680;2023-02-23T06:06:00;8.40;;;4.80;;
57249;SDS011;43102;52.014;-0.680;2023-02-23T06:07:00;10.60;;;3.90;;
57249;SDS011;43102;52.014;-0.680;2023-02-23T06:08:00;10.60;;;3.90;;
57249;SDS011;43102;52.014;-0.680;2023-02-23T06:09:03;10.60;;;3.90;;
57249;SDS011;43102;52.014;-0.680;2023-02-23T06:10:00;10.60;;;3.90;;
57249;SDS011;43102;52.014;-0.680;2023-02-23T06:11:01;10.60;;;3.90;;
57249;SDS011;43102;52.014;-0.680;2023-02-23T06:12:01;10.60;;;3.90;;
57249;SDS011;43102;52.014;-0.680;2023-02-23T06:13:01;10.60;;;3.90;;
57249;SDS011;43102;52.014;-0.680;2023-02-23T06:14:00;10.60;;;3.90;;
57249;SDS011;43102;52.014;-0.680;2023-02-23T06:15:01;10.60;;;3.90;;
57249;SDS011;43102;52.014;-0.680;2023-02-23T06:16:01;10.60;;;3.90;;
57249;SDS011;43102;52.014;-0.680;2023-02-23T06:17:00;10.60;;;3.90;;
57249;SDS011;43102;52.014;-0.680;2023-02-23T06:18:00;10.60;;;3.90;;
57249;SDS011;43102;52.014;-0.680;2023-02-23T06:19:00;10.60;;;3.90;;
57249;SDS011;43102;52.014;-0.680;2023-02-23T06:20:03;10.60;;;3.90;;
57249;SDS011;43102;52.014;-0.680;2023-02-23T06:21:02;10.60;;;3.90;;
57249;SDS011;43102;52.014;-0.680;2023-02-23T06:22:01;10.60;;;3.90;;
57249;SDS011;43102;52.014;-0.680;2023-02-23T06:23:00;10.60;;;3.90;;
57249;SDS011;43102;52.014;-0.680;2023-02-23T06:24:01;10.60;;;3.90;;